Redbird, Wyoming
Current Conditions -  °F | °C
As of 11:15 AM on Monday 26 Jan 2015 (Local Time) from KECS Reporting Station
Clear Clear  
Wind Chill: 54°   Ceiling: Unl
Heat Index: 54°   Visibility: 10mi
Dew Point: 27°   Wind: 9mph
Humidity: 35%   Direction: 290°WNW
Pressure: 30.16"   Gusts: NA
Location:  43.24°N, 104.29°W
Report Text: KECS 261815Z AUTO 29008KT 10SM CLR 12/M03 A3016 RMK AO2
Loading
Personal Weather Stations






























Interactive Weather Map New forecast layout! Learn more

10-Day Weather Forecast

Advertisements
Track Severe Weather on mobile